createdAt,value
2023-05-21T00:00:15.539Z,13.88
2023-05-21T00:02:42.047Z,13.91
2023-05-21T00:05:08.439Z,13.92
2023-05-21T00:07:34.744Z,13.95
2023-05-21T00:10:01.070Z,13.90
2023-05-21T00:12:27.379Z,13.92
2023-05-21T00:14:53.843Z,13.85
2023-05-21T00:17:20.229Z,13.77
2023-05-21T00:19:46.612Z,13.76
2023-05-21T00:22:13.074Z,13.71
2023-05-21T00:24:39.451Z,13.65
2023-05-21T00:27:05.793Z,13.62
2023-05-21T00:29:32.098Z,13.64
2023-05-21T00:31:58.452Z,13.68
2023-05-21T00:34:24.811Z,13.71
2023-05-21T00:36:51.136Z,13.69
2023-05-21T00:39:17.461Z,13.70
2023-05-21T00:41:43.791Z,13.68
2023-05-21T00:44:10.122Z,13.63
2023-05-21T00:46:36.457Z,13.61
2023-05-21T00:49:02.788Z,13.61
2023-05-21T00:51:29.114Z,13.66
2023-05-21T00:53:55.450Z,13.67
2023-05-21T00:56:21.751Z,13.60
2023-05-21T00:58:48.093Z,13.60
2023-05-21T01:01:14.477Z,13.58
2023-05-21T01:03:40.891Z,13.59
2023-05-21T01:06:07.267Z,13.60
2023-05-21T01:08:33.579Z,13.60
2023-05-21T01:10:59.901Z,13.60
2023-05-21T01:13:26.215Z,13.57
2023-05-21T01:15:52.540Z,13.55
2023-05-21T01:18:18.872Z,13.56
2023-05-21T01:20:45.197Z,13.55
2023-05-21T01:23:11.532Z,13.54
2023-05-21T01:25:38.158Z,13.52
2023-05-21T01:28:04.705Z,13.51
2023-05-21T01:30:31.042Z,13.53
2023-05-21T01:32:57.455Z,13.53
2023-05-21T01:35:23.914Z,13.52
2023-05-21T01:37:50.232Z,13.51
2023-05-21T01:40:16.566Z,13.46
2023-05-21T01:42:42.921Z,13.44
2023-05-21T01:45:09.220Z,13.37
2023-05-21T01:47:35.600Z,13.33
2023-05-21T01:50:01.979Z,13.33
2023-05-21T01:52:28.270Z,13.35
2023-05-21T01:54:54.581Z,13.34
2023-05-21T01:57:20.913Z,13.33
2023-05-21T01:59:47.233Z,13.27
2023-05-21T02:02:13.579Z,13.15
2023-05-21T02:04:39.914Z,13.15
2023-05-21T02:07:06.211Z,13.16
2023-05-21T02:09:32.500Z,13.14
2023-05-21T02:11:58.820Z,13.14
2023-05-21T02:14:25.156Z,13.15
2023-05-21T02:16:51.469Z,13.17
2023-05-21T02:19:18.234Z,13.16
2023-05-21T02:21:44.598Z,13.17
2023-05-21T02:24:10.898Z,13.16
2023-05-21T02:26:37.198Z,13.17
2023-05-21T02:29:03.525Z,13.17
2023-05-21T02:31:29.850Z,13.16
2023-05-21T02:33:56.213Z,13.14
2023-05-21T02:36:22.573Z,13.10
2023-05-21T02:38:48.865Z,13.05
2023-05-21T02:41:15.200Z,13.04
2023-05-21T02:43:41.546Z,13.02
2023-05-21T02:46:08.010Z,13.03
2023-05-21T02:48:34.366Z,13.00
2023-05-21T02:51:00.686Z,12.95
2023-05-21T02:53:26.989Z,12.95
2023-05-21T02:55:53.330Z,12.93
2023-05-21T02:58:19.695Z,12.89
2023-05-21T03:00:46.047Z,12.88
2023-05-21T03:03:12.429Z,12.89
2023-05-21T03:05:38.898Z,12.92
2023-05-21T03:08:05.298Z,12.89
2023-05-21T03:10:31.602Z,12.85
2023-05-21T03:12:58.014Z,12.89
2023-05-21T03:15:24.451Z,12.89
2023-05-21T03:17:50.814Z,12.87
2023-05-21T03:20:17.260Z,12.87
2023-05-21T03:22:43.575Z,12.82
2023-05-21T03:25:09.898Z,12.85
2023-05-21T03:27:36.243Z,12.85
2023-05-21T03:30:03.091Z,12.75
2023-05-21T03:32:30.224Z,12.61
2023-05-21T03:34:56.563Z,12.53
2023-05-21T03:37:22.949Z,12.51
2023-05-21T03:39:49.251Z,12.53
2023-05-21T03:42:15.561Z,12.51
2023-05-21T03:44:41.896Z,12.50
2023-05-21T03:47:08.213Z,12.51
2023-05-21T03:49:34.518Z,12.50
2023-05-21T03:52:00.836Z,12.50
2023-05-21T03:54:27.178Z,12.51
2023-05-21T03:56:53.497Z,12.52
2023-05-21T03:59:19.797Z,12.53
2023-05-21T04:01:46.138Z,12.54
2023-05-21T04:04:12.526Z,12.55
2023-05-21T04:06:38.969Z,12.53
2023-05-21T04:09:05.378Z,12.52
2023-05-21T04:11:31.702Z,12.54
2023-05-21T04:13:58.037Z,12.53
2023-05-21T04:16:24.504Z,12.51
2023-05-21T04:18:50.952Z,12.33
2023-05-21T04:21:17.289Z,12.35
2023-05-21T04:23:43.644Z,12.35
2023-05-21T04:26:09.993Z,12.35
2023-05-21T04:28:36.317Z,12.34
2023-05-21T04:31:02.787Z,12.33
2023-05-21T04:33:29.246Z,12.35
2023-05-21T04:35:55.565Z,12.37
2023-05-21T04:38:21.904Z,12.39
2023-05-21T04:40:48.220Z,12.40
2023-05-21T04:43:14.521Z,12.40
2023-05-21T04:45:40.836Z,12.39
2023-05-21T04:48:07.383Z,12.42
2023-05-21T04:50:33.764Z,12.41
2023-05-21T04:53:00.064Z,12.36
2023-05-21T04:55:26.438Z,12.44
2023-05-21T04:57:52.741Z,12.45
2023-05-21T05:00:19.048Z,12.45
2023-05-21T05:02:45.453Z,12.44
2023-05-21T05:05:11.830Z,12.42
2023-05-21T05:07:38.154Z,12.43
2023-05-21T05:10:04.458Z,12.45
2023-05-21T05:12:30.752Z,12.44
2023-05-21T05:14:57.098Z,12.43
2023-05-21T05:17:23.441Z,12.43
2023-05-21T05:19:49.762Z,12.45
2023-05-21T05:22:16.074Z,12.47
2023-05-21T05:24:42.380Z,12.47
2023-05-21T05:27:08.716Z,12.50
2023-05-21T05:29:35.043Z,12.52
2023-05-21T05:32:01.371Z,12.55
2023-05-21T05:34:27.716Z,12.55
2023-05-21T05:36:54.083Z,12.59
2023-05-21T05:39:20.395Z,12.63
2023-05-21T05:41:46.721Z,12.68
2023-05-21T05:44:13.030Z,12.73
2023-05-21T05:46:39.390Z,12.76
2023-05-21T05:49:05.822Z,12.79
2023-05-21T05:51:32.172Z,12.82
2023-05-21T05:53:58.508Z,12.85
2023-05-21T05:56:24.849Z,12.90
2023-05-21T05:58:51.186Z,12.94
2023-05-21T06:01:17.603Z,12.96
2023-05-21T06:03:44.034Z,13.00
2023-05-21T06:06:10.432Z,13.04
2023-05-21T06:08:38.336Z,13.05
2023-05-21T06:11:04.738Z,13.06
2023-05-21T06:13:31.066Z,13.09
2023-05-21T06:15:57.453Z,13.11
2023-05-21T06:18:23.788Z,13.13
2023-05-21T06:20:50.105Z,13.17
2023-05-21T06:23:16.481Z,13.19
2023-05-21T06:25:42.802Z,13.21
2023-05-21T06:28:09.099Z,13.24
2023-05-21T06:30:35.432Z,13.30
2023-05-21T06:33:01.894Z,13.34
2023-05-21T06:35:28.268Z,13.35
2023-05-21T06:37:54.662Z,13.34
2023-05-21T06:40:20.965Z,13.37
2023-05-21T06:42:47.304Z,13.28
2023-05-21T06:45:13.628Z,13.33
2023-05-21T06:47:39.986Z,13.37
2023-05-21T06:50:06.449Z,13.39
2023-05-21T06:52:32.811Z,13.43
2023-05-21T06:54:59.183Z,13.46
2023-05-21T06:57:25.485Z,13.48
2023-05-21T06:59:51.818Z,13.52
2023-05-21T07:02:18.265Z,13.56
2023-05-21T07:04:44.607Z,13.60
2023-05-21T07:07:11.099Z,13.66
2023-05-21T07:09:37.444Z,13.70
2023-05-21T07:12:03.792Z,13.69
2023-05-21T07:14:30.119Z,13.73
2023-05-21T07:16:56.501Z,13.80
2023-05-21T07:19:22.896Z,13.82
2023-05-21T07:21:49.277Z,13.86
2023-05-21T07:24:15.624Z,13.93
2023-05-21T07:26:41.963Z,14.01
2023-05-21T07:29:08.333Z,14.09
2023-05-21T07:31:34.782Z,14.16
2023-05-21T07:34:01.163Z,14.23
2023-05-21T07:36:27.493Z,14.30
2023-05-21T07:38:53.840Z,14.35
2023-05-21T07:41:20.169Z,14.39
2023-05-21T07:43:46.508Z,14.42
2023-05-21T07:46:12.870Z,14.45
2023-05-21T07:48:39.226Z,14.48
2023-05-21T07:51:05.555Z,14.56
2023-05-21T07:53:31.896Z,14.61
2023-05-21T07:55:58.227Z,14.67
2023-05-21T07:58:24.761Z,14.71
2023-05-21T08:00:51.116Z,14.77
2023-05-21T08:03:17.544Z,14.80
2023-05-21T08:05:43.927Z,14.84
2023-05-21T08:08:10.241Z,14.88
2023-05-21T08:10:36.591Z,14.95
2023-05-21T08:13:02.906Z,14.99
2023-05-21T08:15:29.229Z,15.05
2023-05-21T08:17:55.595Z,15.07
2023-05-21T08:20:21.978Z,15.13
2023-05-21T08:22:48.321Z,15.17
2023-05-21T08:25:14.644Z,15.21
2023-05-21T08:27:40.970Z,15.32
2023-05-21T08:30:07.284Z,15.40
2023-05-21T08:32:33.692Z,15.44
2023-05-21T08:35:00.063Z,15.46
2023-05-21T08:37:26.460Z,15.48
2023-05-21T08:39:52.860Z,15.49
2023-05-21T08:42:32.845Z,15.54
2023-05-21T08:45:03.074Z,15.54
2023-05-21T08:47:29.416Z,15.57
2023-05-21T08:49:55.763Z,15.60
2023-05-21T08:52:22.095Z,15.65
2023-05-21T08:54:48.425Z,15.70
2023-05-21T08:57:14.767Z,15.66
2023-05-21T08:59:41.068Z,15.73
2023-05-21T09:02:07.402Z,15.71
2023-05-21T09:04:33.788Z,15.77
2023-05-21T09:07:00.147Z,15.81
2023-05-21T09:09:26.484Z,15.88
2023-05-21T09:11:52.864Z,15.95
2023-05-21T09:14:19.185Z,15.95
2023-05-21T09:16:45.551Z,16.00
2023-05-21T09:19:11.938Z,15.99
2023-05-21T09:21:38.341Z,16.03
2023-05-21T09:24:04.853Z,16.07
2023-05-21T09:26:31.229Z,16.10
2023-05-21T09:28:57.558Z,16.06
2023-05-21T09:31:23.923Z,16.07
2023-05-21T09:33:50.304Z,16.07
2023-05-21T09:36:16.642Z,16.13
2023-05-21T09:38:42.977Z,16.16
2023-05-21T09:41:09.288Z,16.26
2023-05-21T09:43:35.680Z,16.35
2023-05-21T09:46:02.396Z,16.40
2023-05-21T09:48:28.807Z,16.50
2023-05-21T09:50:55.111Z,16.55
2023-05-21T09:53:21.457Z,16.62
2023-05-21T09:55:47.804Z,16.71
2023-05-21T09:58:14.118Z,16.74
2023-05-21T10:00:40.433Z,16.79
2023-05-21T10:03:06.791Z,16.86
2023-05-21T10:05:33.230Z,16.99
2023-05-21T10:07:59.576Z,17.02
2023-05-21T10:10:25.899Z,16.96
2023-05-21T10:12:52.228Z,16.81
2023-05-21T10:15:18.553Z,16.79
2023-05-21T10:17:44.930Z,16.77
2023-05-21T10:20:11.284Z,16.81
2023-05-21T10:22:37.621Z,16.75
2023-05-21T10:25:04.012Z,16.78
2023-05-21T10:27:32.288Z,16.94
2023-05-21T10:29:59.248Z,17.04
2023-05-21T10:32:25.730Z,17.10
2023-05-21T10:34:52.178Z,17.17
2023-05-21T10:37:18.561Z,17.21
2023-05-21T10:39:45.000Z,17.25
2023-05-21T10:42:11.333Z,17.31
2023-05-21T10:44:37.672Z,17.31
2023-05-21T10:47:04.033Z,17.19
2023-05-21T10:49:30.429Z,17.20
2023-05-21T10:51:56.751Z,17.21
2023-05-21T10:54:23.233Z,17.25
2023-05-21T10:56:49.619Z,17.22
2023-05-21T10:59:15.941Z,17.21
2023-05-21T11:01:42.408Z,17.18
2023-05-21T11:04:08.765Z,17.06
2023-05-21T11:06:35.131Z,17.05
2023-05-21T11:09:01.457Z,17.04
2023-05-21T11:11:29.822Z,16.96
2023-05-21T11:13:56.180Z,17.00
2023-05-21T11:16:22.547Z,17.06
2023-05-21T11:18:48.990Z,17.15
2023-05-21T11:21:15.381Z,17.27
2023-05-21T11:23:41.707Z,17.36
2023-05-21T11:26:08.051Z,17.53
2023-05-21T11:28:34.431Z,17.66
2023-05-21T11:31:00.764Z,17.64
2023-05-21T11:33:27.135Z,17.68
2023-05-21T11:35:53.476Z,17.73
2023-05-21T11:38:19.810Z,17.67
2023-05-21T11:40:46.179Z,17.70
2023-05-21T11:43:12.517Z,17.74
2023-05-21T11:45:38.809Z,17.73
2023-05-21T11:48:05.223Z,17.69
2023-05-21T11:50:31.591Z,17.72
2023-05-21T11:52:57.988Z,17.75
2023-05-21T11:55:24.324Z,17.84
2023-05-21T11:57:50.667Z,17.92
2023-05-21T12:00:17.006Z,17.94
2023-05-21T12:02:43.482Z,17.94
2023-05-21T12:05:10.292Z,17.96
2023-05-21T12:07:38.129Z,18.07
2023-05-21T12:10:04.490Z,18.09
2023-05-21T12:12:41.820Z,18.14
2023-05-21T12:15:16.779Z,18.22
2023-05-21T12:17:43.133Z,18.24
2023-05-21T12:20:09.461Z,18.23
2023-05-21T12:22:35.771Z,18.23
2023-05-21T12:25:02.114Z,18.32
2023-05-21T12:27:28.595Z,18.44
2023-05-21T12:29:54.904Z,18.48
2023-05-21T12:32:21.288Z,18.55
2023-05-21T12:34:47.687Z,18.60
2023-05-21T12:37:13.990Z,18.62
2023-05-21T12:39:40.329Z,18.70
2023-05-21T12:42:06.661Z,18.66
2023-05-21T12:44:34.409Z,18.67
2023-05-21T12:47:02.366Z,18.56
2023-05-21T12:49:28.669Z,18.41
2023-05-21T12:51:54.985Z,18.42
2023-05-21T12:54:21.270Z,18.48
2023-05-21T12:56:47.599Z,18.53
2023-05-21T12:59:13.902Z,18.56
2023-05-21T13:01:40.353Z,18.60
2023-05-21T13:04:06.763Z,18.63
2023-05-21T13:06:33.090Z,18.65
2023-05-21T13:08:59.443Z,18.69
2023-05-21T13:11:26.833Z,18.75
2023-05-21T13:13:53.127Z,18.78
2023-05-21T13:16:19.469Z,18.84
2023-05-21T13:18:45.833Z,18.84
2023-05-21T13:21:12.228Z,18.87
2023-05-21T13:23:38.565Z,18.86
2023-05-21T13:26:04.891Z,18.95
2023-05-21T13:28:31.267Z,19.04
2023-05-21T13:30:57.599Z,19.25
2023-05-21T13:33:24.084Z,19.37
2023-05-21T13:35:50.524Z,19.50
2023-05-21T13:38:16.845Z,19.65
2023-05-21T13:40:43.367Z,19.58
2023-05-21T13:43:09.878Z,19.80
2023-05-21T13:45:36.185Z,19.76
2023-05-21T13:48:02.561Z,19.90
2023-05-21T13:50:28.908Z,19.88
2023-05-21T13:52:55.222Z,19.99
2023-05-21T13:55:21.567Z,20.07
2023-05-21T13:57:47.903Z,20.15
2023-05-21T14:00:14.303Z,20.31
2023-05-21T14:02:40.739Z,20.33
2023-05-21T14:05:07.093Z,20.45
2023-05-21T14:07:33.492Z,20.57
2023-05-21T14:09:59.824Z,20.57
2023-05-21T14:12:26.165Z,20.71
2023-05-21T14:14:52.550Z,20.81
2023-05-21T14:17:18.873Z,20.84
2023-05-21T14:19:45.169Z,20.93
2023-05-21T14:22:11.540Z,21.00
2023-05-21T14:24:37.869Z,21.16
2023-05-21T14:27:04.201Z,21.27
2023-05-21T14:29:30.556Z,21.41
2023-05-21T14:31:56.881Z,21.40
2023-05-21T14:34:23.246Z,21.41
2023-05-21T14:36:49.607Z,21.50
2023-05-21T14:39:15.940Z,21.45
2023-05-21T14:41:42.261Z,21.44
2023-05-21T14:44:08.615Z,21.56
2023-05-21T14:46:34.969Z,21.54
2023-05-21T14:49:01.384Z,21.59
2023-05-21T14:51:27.728Z,21.58
2023-05-21T14:53:54.080Z,21.69
2023-05-21T14:56:20.386Z,21.78
2023-05-21T14:58:46.721Z,21.78
2023-05-21T15:01:13.066Z,21.82
2023-05-21T15:03:39.572Z,22.00
2023-05-21T15:06:06.038Z,22.13
2023-05-21T15:08:32.364Z,22.19
2023-05-21T15:10:58.713Z,22.30
2023-05-21T15:13:25.049Z,22.15
2023-05-21T15:15:51.421Z,22.28
2023-05-21T15:18:17.826Z,22.42
2023-05-21T15:20:44.126Z,22.46
2023-05-21T15:23:16.902Z,22.66
2023-05-21T15:25:43.875Z,22.76
2023-05-21T15:28:10.223Z,22.97
2023-05-21T15:30:36.519Z,23.14
2023-05-21T15:33:02.821Z,23.29
2023-05-21T15:35:29.240Z,23.46
2023-05-21T15:37:55.691Z,23.57
2023-05-21T15:40:22.640Z,23.55
2023-05-21T15:42:49.716Z,23.63
2023-05-21T15:45:16.106Z,23.70
2023-05-21T15:47:43.011Z,23.61
2023-05-21T15:50:09.446Z,23.61
2023-05-21T15:52:35.761Z,23.61
2023-05-21T15:55:02.096Z,23.56
2023-05-21T15:57:28.416Z,23.61
2023-05-21T15:59:54.748Z,23.68
2023-05-21T16:02:21.074Z,23.56
2023-05-21T16:04:47.403Z,23.69
2023-05-21T16:07:13.795Z,23.90
2023-05-21T16:09:40.098Z,24.08
2023-05-21T16:12:06.436Z,24.30
2023-05-21T16:14:32.746Z,24.67
2023-05-21T16:16:59.091Z,25.02
2023-05-21T16:19:25.531Z,25.00
2023-05-21T16:21:51.992Z,25.30
2023-05-21T16:24:18.317Z,25.73
2023-05-21T16:26:44.678Z,26.08
2023-05-21T16:29:11.004Z,26.42
2023-05-21T16:31:37.389Z,26.48
2023-05-21T16:34:03.738Z,26.60
2023-05-21T16:36:30.100Z,26.60
2023-05-21T16:38:56.428Z,26.43
2023-05-21T16:41:22.912Z,26.36
2023-05-21T16:43:49.261Z,26.28
2023-05-21T16:46:15.597Z,26.44
2023-05-21T16:48:41.969Z,26.46
2023-05-21T16:51:08.305Z,26.61
2023-05-21T16:53:34.672Z,26.79
2023-05-21T16:56:01.062Z,27.06
2023-05-21T16:58:27.390Z,27.14
2023-05-21T17:00:53.712Z,27.34
2023-05-21T17:03:20.240Z,27.46
2023-05-21T17:05:46.672Z,27.52
2023-05-21T17:08:13.021Z,27.71
2023-05-21T17:10:39.388Z,28.01
2023-05-21T17:13:17.720Z,28.15
2023-05-21T17:15:47.583Z,28.33
2023-05-21T17:18:13.950Z,28.24
2023-05-21T17:20:40.381Z,27.97
2023-05-21T17:23:06.793Z,27.88
2023-05-21T17:25:34.390Z,27.81
2023-05-21T17:28:01.178Z,27.29
2023-05-21T17:30:27.500Z,26.81
2023-05-21T17:32:53.898Z,26.23
2023-05-21T17:35:20.295Z,25.75
2023-05-21T17:37:46.627Z,25.48
2023-05-21T17:40:12.968Z,25.13
2023-05-21T17:42:39.310Z,24.82
2023-05-21T17:45:05.626Z,24.25
2023-05-21T17:47:32.023Z,23.89
2023-05-21T17:49:58.367Z,23.77
2023-05-21T17:52:24.689Z,23.60
2023-05-21T17:54:50.985Z,23.42
2023-05-21T17:57:17.283Z,23.33
2023-05-21T17:59:43.632Z,23.23
2023-05-21T18:02:09.996Z,23.15
2023-05-21T18:04:36.324Z,23.01
2023-05-21T18:07:02.719Z,22.74
2023-05-21T18:09:29.034Z,22.63
2023-05-21T18:11:55.543Z,22.59
2023-05-21T18:14:21.898Z,22.52
2023-05-21T18:16:48.308Z,22.49
2023-05-21T18:19:14.674Z,22.41
2023-05-21T18:21:41.065Z,22.38
2023-05-21T18:24:07.437Z,22.27
2023-05-21T18:26:33.780Z,22.15
2023-05-21T18:29:00.097Z,22.05
2023-05-21T18:31:26.611Z,21.95
2023-05-21T18:33:53.003Z,21.80
2023-05-21T18:36:19.317Z,21.69
2023-05-21T18:38:45.749Z,21.62
2023-05-21T18:41:12.066Z,21.34
2023-05-21T18:43:38.637Z,21.20
2023-05-21T18:46:04.961Z,21.08
2023-05-21T18:48:31.293Z,21.02
2023-05-21T18:50:57.668Z,20.90
2023-05-21T18:53:24.019Z,20.87
2023-05-21T18:55:50.356Z,20.68
2023-05-21T18:58:16.692Z,20.62
2023-05-21T19:00:43.033Z,20.57
2023-05-21T19:03:09.412Z,20.56
2023-05-21T19:05:35.856Z,20.54
2023-05-21T19:08:02.237Z,20.50
2023-05-21T19:10:28.740Z,20.50
2023-05-21T19:12:55.104Z,20.47
2023-05-21T19:15:21.516Z,20.44
2023-05-21T19:17:47.966Z,20.37
2023-05-21T19:20:14.318Z,20.30
2023-05-21T19:22:40.690Z,20.27
2023-05-21T19:25:07.027Z,20.25
2023-05-21T19:27:33.323Z,20.23
2023-05-21T19:29:59.637Z,20.18
2023-05-21T19:32:25.985Z,20.16
2023-05-21T19:34:52.415Z,20.11
2023-05-21T19:37:18.722Z,20.04
2023-05-21T19:39:45.046Z,19.99
2023-05-21T19:42:11.393Z,19.94
2023-05-21T19:44:37.733Z,19.89
2023-05-21T19:47:04.058Z,19.84
2023-05-21T19:49:30.394Z,19.76
2023-05-21T19:51:56.684Z,19.72
2023-05-21T19:54:22.981Z,19.69
2023-05-21T19:56:49.341Z,19.63
2023-05-21T19:59:15.839Z,19.62
2023-05-21T20:01:42.200Z,19.61
2023-05-21T20:04:08.627Z,19.60
2023-05-21T20:06:34.954Z,19.59
2023-05-21T20:09:01.532Z,19.56
2023-05-21T20:11:28.319Z,19.56
2023-05-21T20:13:54.890Z,19.54
2023-05-21T20:16:21.574Z,19.52
2023-05-21T20:18:48.205Z,19.50
2023-05-21T20:21:14.597Z,19.44
2023-05-21T20:23:40.975Z,19.41
2023-05-21T20:26:07.293Z,19.39
2023-05-21T20:28:33.608Z,19.30
2023-05-21T20:30:59.980Z,19.12
2023-05-21T20:33:26.370Z,19.03
2023-05-21T20:35:52.692Z,18.91
2023-05-21T20:38:18.995Z,18.76
2023-05-21T20:40:45.293Z,18.54
2023-05-21T20:43:11.699Z,18.50
2023-05-21T20:45:38.081Z,18.39
2023-05-21T20:48:04.414Z,18.26
2023-05-21T20:50:30.724Z,18.20
2023-05-21T20:52:57.088Z,18.19
2023-05-21T20:55:23.432Z,18.21
2023-05-21T20:57:49.755Z,18.22
2023-05-21T21:00:16.231Z,18.00
2023-05-21T21:02:42.725Z,17.79
2023-05-21T21:05:09.185Z,17.75
2023-05-21T21:07:35.488Z,17.77
2023-05-21T21:10:01.797Z,17.73
2023-05-21T21:12:28.154Z,17.85
2023-05-21T21:14:54.541Z,17.97
2023-05-21T21:17:20.975Z,17.98
2023-05-21T21:19:47.331Z,18.02
2023-05-21T21:22:13.655Z,18.10
2023-05-21T21:24:39.949Z,18.14
2023-05-21T21:27:06.274Z,18.19
2023-05-21T21:29:32.593Z,18.21
2023-05-21T21:31:58.906Z,18.23
2023-05-21T21:34:25.232Z,18.26
2023-05-21T21:36:51.581Z,18.30
2023-05-21T21:39:17.921Z,18.31
2023-05-21T21:41:44.225Z,18.32
2023-05-21T21:44:10.557Z,18.36
2023-05-21T21:46:36.869Z,18.33
2023-05-21T21:49:03.188Z,18.35
2023-05-21T21:51:29.628Z,18.36
2023-05-21T21:53:55.918Z,18.35
2023-05-21T21:56:22.232Z,18.36
2023-05-21T21:58:48.577Z,18.23
2023-05-21T22:01:14.993Z,18.23
2023-05-21T22:03:41.346Z,18.16
2023-05-21T22:06:07.647Z,18.10
2023-05-21T22:08:34.180Z,18.10
2023-05-21T22:11:00.513Z,18.02
2023-05-21T22:13:29.189Z,18.02
2023-05-21T22:15:56.229Z,18.02
2023-05-21T22:18:31.842Z,17.98
2023-05-21T22:21:05.565Z,17.97
2023-05-21T22:23:31.854Z,17.98
2023-05-21T22:25:58.189Z,17.95
2023-05-21T22:28:24.497Z,17.93
2023-05-21T22:30:50.850Z,17.82
2023-05-21T22:33:17.277Z,17.78
2023-05-21T22:35:43.604Z,17.76
2023-05-21T22:38:09.941Z,17.71
2023-05-21T22:40:36.521Z,17.70
2023-05-21T22:43:02.991Z,17.68
2023-05-21T22:45:29.311Z,17.68
2023-05-21T22:47:55.828Z,17.68
2023-05-21T22:50:22.139Z,17.74
2023-05-21T22:52:48.537Z,17.71
2023-05-21T22:55:14.861Z,17.72
2023-05-21T22:57:41.192Z,17.63
2023-05-21T23:00:07.561Z,17.48
2023-05-21T23:02:33.938Z,17.48
2023-05-21T23:05:00.493Z,17.36
2023-05-21T23:07:26.859Z,17.32
2023-05-21T23:09:53.175Z,17.19
2023-05-21T23:12:19.488Z,17.21
2023-05-21T23:14:45.815Z,17.22
2023-05-21T23:17:12.176Z,17.17
2023-05-21T23:19:38.481Z,17.14
2023-05-21T23:22:04.789Z,17.11
2023-05-21T23:24:31.104Z,17.10
2023-05-21T23:26:57.415Z,17.12
2023-05-21T23:29:23.770Z,17.09
2023-05-21T23:31:50.108Z,17.02
2023-05-21T23:34:16.407Z,16.95
2023-05-21T23:36:42.704Z,16.84
2023-05-21T23:39:09.186Z,16.74
2023-05-21T23:41:35.579Z,16.77
2023-05-21T23:44:01.901Z,16.79
2023-05-21T23:46:28.198Z,16.76
2023-05-21T23:48:54.484Z,16.74
2023-05-21T23:51:20.826Z,16.73
2023-05-21T23:53:47.112Z,16.70
2023-05-21T23:56:13.418Z,16.73
2023-05-21T23:58:39.699Z,16.72
